sensor_id;sensor_type;location;lat;lon;timestamp;pressure;altitude;pressure_sealevel;temperature;humidity
740;BME280;354;42.694;23.336;2023-04-09T00:00:36;95507.00;;;7.85;100.00
740;BME280;354;42.694;23.336;2023-04-09T00:03:01;95495.44;;;7.79;100.00
740;BME280;354;42.694;23.336;2023-04-09T00:05:27;95504.13;;;7.80;100.00
740;BME280;354;42.694;23.336;2023-04-09T00:07:52;95494.59;;;7.72;100.00
740;BME280;354;42.694;23.336;2023-04-09T00:10:18;95487.00;;;7.77;100.00
740;BME280;354;42.694;23.336;2023-04-09T00:12:43;95484.91;;;7.73;100.00
740;BME280;354;42.694;23.336;2023-04-09T00:15:09;95492.31;;;7.69;100.00
740;BME280;354;42.694;23.336;2023-04-09T00:17:35;95500.53;;;7.81;100.00
740;BME280;354;42.694;23.336;2023-04-09T00:20:00;95496.19;;;7.73;100.00
740;BME280;354;42.694;23.336;2023-04-09T00:22:26;95507.31;;;7.75;100.00
740;BME280;354;42.694;23.336;2023-04-09T00:24:51;95512.56;;;7.75;100.00
740;BME280;354;42.694;23.336;2023-04-09T00:27:17;95499.00;;;7.72;100.00
740;BME280;354;42.694;23.336;2023-04-09T00:29:42;95491.53;;;7.69;100.00
740;BME280;354;42.694;23.336;2023-04-09T00:32:07;95516.28;;;7.87;100.00
740;BME280;354;42.694;23.336;2023-04-09T00:34:33;95495.09;;;7.82;100.00
740;BME280;354;42.694;23.336;2023-04-09T00:36:58;95517.91;;;7.88;100.00
740;BME280;354;42.694;23.336;2023-04-09T00:39:24;95519.97;;;7.93;100.00
740;BME280;354;42.694;23.336;2023-04-09T00:41:49;95522.78;;;7.91;100.00
740;BME280;354;42.694;23.336;2023-04-09T00:44:19;95490.34;;;7.71;100.00
740;BME280;354;42.694;23.336;2023-04-09T00:46:45;95516.09;;;7.89;100.00
740;BME280;354;42.694;23.336;2023-04-09T00:49:10;95515.59;;;7.79;100.00
740;BME280;354;42.694;23.336;2023-04-09T00:51:35;95513.97;;;7.78;100.00
740;BME280;354;42.694;23.336;2023-04-09T00:54:01;95467.84;;;7.55;100.00
740;BME280;354;42.694;23.336;2023-04-09T00:56:27;95504.75;;;7.82;100.00
740;BME280;354;42.694;23.336;2023-04-09T00:58:54;95477.22;;;7.64;100.00
740;BME280;354;42.694;23.336;2023-04-09T01:01:19;95519.28;;;7.84;100.00
740;BME280;354;42.694;23.336;2023-04-09T01:03:45;95462.34;;;7.50;100.00
740;BME280;354;42.694;23.336;2023-04-09T01:14:46;95503.75;;;7.83;100.00
740;BME280;354;42.694;23.336;2023-04-09T01:20:08;95511.56;;;7.98;100.00
740;BME280;354;42.694;23.336;2023-04-09T01:22:58;95522.28;;;8.03;100.00
740;BME280;354;42.694;23.336;2023-04-09T01:28:17;95521.47;;;8.02;100.00
740;BME280;354;42.694;23.336;2023-04-09T01:30:47;95517.66;;;8.05;100.00
740;BME280;354;42.694;23.336;2023-04-09T01:33:14;95523.25;;;8.02;100.00
740;BME280;354;42.694;23.336;2023-04-09T01:35:42;95517.97;;;7.95;100.00
740;BME280;354;42.694;23.336;2023-04-09T01:38:11;95498.22;;;7.71;100.00
740;BME280;354;42.694;23.336;2023-04-09T01:40:38;95503.97;;;7.81;100.00
740;BME280;354;42.694;23.336;2023-04-09T01:43:05;95530.25;;;7.95;100.00
740;BME280;354;42.694;23.336;2023-04-09T01:45:32;95484.13;;;7.72;100.00
740;BME280;354;42.694;23.336;2023-04-09T01:47:58;95522.34;;;7.88;100.00
740;BME280;354;42.694;23.336;2023-04-09T01:50:24;95509.69;;;7.91;100.00
740;BME280;354;42.694;23.336;2023-04-09T01:52:50;95496.19;;;7.73;100.00
740;BME280;354;42.694;23.336;2023-04-09T01:55:15;95526.22;;;7.92;100.00
740;BME280;354;42.694;23.336;2023-04-09T01:57:41;95501.69;;;7.78;100.00
740;BME280;354;42.694;23.336;2023-04-09T02:00:07;95497.16;;;7.65;100.00
740;BME280;354;42.694;23.336;2023-04-09T02:02:44;95484.63;;;7.61;100.00
740;BME280;354;42.694;23.336;2023-04-09T02:05:14;95509.22;;;7.66;100.00
740;BME280;354;42.694;23.336;2023-04-09T02:07:53;95507.63;;;7.65;100.00
740;BME280;354;42.694;23.336;2023-04-09T02:10:23;95510.53;;;7.56;100.00
740;BME280;354;42.694;23.336;2023-04-09T02:12:51;95521.06;;;7.62;100.00
740;BME280;354;42.694;23.336;2023-04-09T02:15:18;95519.38;;;7.55;100.00
740;BME280;354;42.694;23.336;2023-04-09T02:17:44;95518.38;;;7.56;100.00
740;BME280;354;42.694;23.336;2023-04-09T02:20:10;95508.53;;;7.36;100.00
740;BME280;354;42.694;23.336;2023-04-09T02:22:36;95517.00;;;7.38;100.00
740;BME280;354;42.694;23.336;2023-04-09T02:25:03;95522.47;;;7.44;100.00
740;BME280;354;42.694;23.336;2023-04-09T02:27:28;95483.13;;;7.16;100.00
740;BME280;354;42.694;23.336;2023-04-09T02:29:53;95513.38;;;7.25;100.00
740;BME280;354;42.694;23.336;2023-04-09T02:32:19;95505.47;;;7.18;100.00
740;BME280;354;42.694;23.336;2023-04-09T02:34:44;95513.03;;;7.13;100.00
740;BME280;354;42.694;23.336;2023-04-09T02:37:10;95513.88;;;6.99;100.00
740;BME280;354;42.694;23.336;2023-04-09T02:39:35;95507.31;;;6.88;100.00
740;BME280;354;42.694;23.336;2023-04-09T02:42:00;95498.94;;;6.78;100.00
740;BME280;354;42.694;23.336;2023-04-09T02:44:26;95519.75;;;6.71;100.00
740;BME280;354;42.694;23.336;2023-04-09T02:46:51;95510.56;;;6.60;100.00
740;BME280;354;42.694;23.336;2023-04-09T02:49:17;95508.66;;;6.54;100.00
740;BME280;354;42.694;23.336;2023-04-09T02:51:42;95520.44;;;6.50;100.00
740;BME280;354;42.694;23.336;2023-04-09T02:54:07;95499.88;;;6.47;100.00
740;BME280;354;42.694;23.336;2023-04-09T02:56:33;95512.25;;;6.53;100.00
740;BME280;354;42.694;23.336;2023-04-09T02:58:58;95497.22;;;6.55;100.00
740;BME280;354;42.694;23.336;2023-04-09T03:01:23;95511.63;;;6.66;100.00
740;BME280;354;42.694;23.336;2023-04-09T03:03:49;95513.97;;;6.61;100.00
740;BME280;354;42.694;23.336;2023-04-09T03:06:14;95509.75;;;6.60;100.00
740;BME280;354;42.694;23.336;2023-04-09T03:08:40;95503.25;;;6.56;100.00
740;BME280;354;42.694;23.336;2023-04-09T03:11:05;95468.16;;;6.36;100.00
740;BME280;354;42.694;23.336;2023-04-09T03:13:30;95512.06;;;6.55;100.00
740;BME280;354;42.694;23.336;2023-04-09T03:15:56;95507.44;;;6.42;100.00
740;BME280;354;42.694;23.336;2023-04-09T03:18:21;95517.28;;;6.40;100.00
740;BME280;354;42.694;23.336;2023-04-09T03:20:47;95492.81;;;6.18;100.00
740;BME280;354;42.694;23.336;2023-04-09T03:23:12;95494.16;;;6.14;100.00
740;BME280;354;42.694;23.336;2023-04-09T03:25:38;95507.41;;;6.13;100.00
740;BME280;354;42.694;23.336;2023-04-09T03:28:03;95506.50;;;6.05;100.00
740;BME280;354;42.694;23.336;2023-04-09T03:30:29;95493.47;;;5.97;100.00
740;BME280;354;42.694;23.336;2023-04-09T03:32:54;95507.91;;;6.08;100.00
740;BME280;354;42.694;23.336;2023-04-09T03:35:20;95495.75;;;6.00;100.00
740;BME280;354;42.694;23.336;2023-04-09T03:37:45;95488.63;;;5.94;100.00
740;BME280;354;42.694;23.336;2023-04-09T03:40:11;95494.78;;;6.01;100.00
740;BME280;354;42.694;23.336;2023-04-09T03:42:37;95523.34;;;6.18;100.00
740;BME280;354;42.694;23.336;2023-04-09T03:45:03;95515.53;;;6.18;100.00
740;BME280;354;42.694;23.336;2023-04-09T03:47:29;95515.06;;;6.14;100.00
740;BME280;354;42.694;23.336;2023-04-09T03:49:54;95509.53;;;6.09;100.00
740;BME280;354;42.694;23.336;2023-04-09T03:52:20;95486.22;;;5.85;100.00
740;BME280;354;42.694;23.336;2023-04-09T03:54:45;95516.00;;;5.98;100.00
740;BME280;354;42.694;23.336;2023-04-09T03:57:11;95522.22;;;5.97;100.00
740;BME280;354;42.694;23.336;2023-04-09T03:59:36;95538.53;;;5.99;100.00
740;BME280;354;42.694;23.336;2023-04-09T04:02:01;95537.81;;;6.05;100.00
740;BME280;354;42.694;23.336;2023-04-09T04:04:27;95526.66;;;5.89;100.00
740;BME280;354;42.694;23.336;2023-04-09T04:06:52;95540.66;;;5.96;100.00
740;BME280;354;42.694;23.336;2023-04-09T04:09:17;95544.13;;;5.88;100.00
740;BME280;354;42.694;23.336;2023-04-09T04:11:43;95540.19;;;5.92;100.00
740;BME280;354;42.694;23.336;2023-04-09T04:14:08;95526.06;;;5.78;100.00
740;BME280;354;42.694;23.336;2023-04-09T04:16:33;95523.31;;;6.03;100.00
740;BME280;354;42.694;23.336;2023-04-09T04:18:59;95546.78;;;6.26;100.00
740;BME280;354;42.694;23.336;2023-04-09T04:21:25;95551.31;;;6.32;100.00
740;BME280;354;42.694;23.336;2023-04-09T04:23:51;95520.56;;;6.19;100.00
740;BME280;354;42.694;23.336;2023-04-09T04:26:16;95544.22;;;6.41;100.00
740;BME280;354;42.694;23.336;2023-04-09T04:28:42;95546.91;;;6.47;100.00
740;BME280;354;42.694;23.336;2023-04-09T04:31:08;95542.63;;;6.54;100.00
740;BME280;354;42.694;23.336;2023-04-09T04:33:34;95549.47;;;6.70;100.00
740;BME280;354;42.694;23.336;2023-04-09T04:36:07;95548.59;;;6.78;100.00
740;BME280;354;42.694;23.336;2023-04-09T04:38:33;95555.91;;;6.82;100.00
740;BME280;354;42.694;23.336;2023-04-09T04:40:58;95554.47;;;6.95;100.00
740;BME280;354;42.694;23.336;2023-04-09T04:43:24;95542.75;;;7.05;100.00
740;BME280;354;42.694;23.336;2023-04-09T04:45:49;95541.47;;;7.16;100.00
740;BME280;354;42.694;23.336;2023-04-09T04:48:14;95551.28;;;7.29;100.00
740;BME280;354;42.694;23.336;2023-04-09T04:50:40;95536.56;;;7.43;100.00
740;BME280;354;42.694;23.336;2023-04-09T04:53:05;95542.31;;;7.53;100.00
740;BME280;354;42.694;23.336;2023-04-09T04:55:30;95535.66;;;7.72;100.00
740;BME280;354;42.694;23.336;2023-04-09T04:57:56;95542.44;;;7.81;100.00
740;BME280;354;42.694;23.336;2023-04-09T05:00:21;95517.00;;;7.75;100.00
740;BME280;354;42.694;23.336;2023-04-09T05:02:47;95542.25;;;8.04;100.00
740;BME280;354;42.694;23.336;2023-04-09T05:05:12;95543.41;;;8.23;100.00
740;BME280;354;42.694;23.336;2023-04-09T05:07:38;95542.00;;;8.41;100.00
740;BME280;354;42.694;23.336;2023-04-09T05:10:03;95519.75;;;8.59;100.00
740;BME280;354;42.694;23.336;2023-04-09T05:12:32;95530.03;;;8.60;100.00
740;BME280;354;42.694;23.336;2023-04-09T05:14:57;95542.34;;;8.94;100.00
740;BME280;354;42.694;23.336;2023-04-09T05:17:23;95536.13;;;9.37;100.00
740;BME280;354;42.694;23.336;2023-04-09T05:19:52;95523.31;;;9.75;100.00
740;BME280;354;42.694;23.336;2023-04-09T05:22:17;95535.91;;;10.06;100.00
740;BME280;354;42.694;23.336;2023-04-09T05:24:43;95538.00;;;10.50;100.00
740;BME280;354;42.694;23.336;2023-04-09T05:27:08;95532.72;;;10.37;100.00
740;BME280;354;42.694;23.336;2023-04-09T05:29:34;95533.16;;;10.41;100.00
740;BME280;354;42.694;23.336;2023-04-09T05:31:59;95519.78;;;10.29;100.00
740;BME280;354;42.694;23.336;2023-04-09T05:34:24;95536.94;;;10.18;100.00
740;BME280;354;42.694;23.336;2023-04-09T05:36:52;95515.88;;;9.98;100.00
740;BME280;354;42.694;23.336;2023-04-09T05:39:17;95522.13;;;9.84;100.00
740;BME280;354;42.694;23.336;2023-04-09T05:41:42;95516.00;;;9.64;100.00
740;BME280;354;42.694;23.336;2023-04-09T05:44:10;95523.69;;;9.65;100.00
740;BME280;354;42.694;23.336;2023-04-09T05:46:35;95529.13;;;9.57;100.00
740;BME280;354;42.694;23.336;2023-04-09T05:49:01;95543.69;;;9.66;100.00
740;BME280;354;42.694;23.336;2023-04-09T05:51:26;95534.22;;;9.72;100.00
740;BME280;354;42.694;23.336;2023-04-09T05:53:51;95545.22;;;10.09;100.00
740;BME280;354;42.694;23.336;2023-04-09T05:56:17;95537.56;;;10.27;100.00
740;BME280;354;42.694;23.336;2023-04-09T05:58:42;95536.78;;;10.46;100.00
740;BME280;354;42.694;23.336;2023-04-09T06:01:08;95515.91;;;10.85;100.00
740;BME280;354;42.694;23.336;2023-04-09T06:03:34;95530.44;;;11.58;100.00
740;BME280;354;42.694;23.336;2023-04-09T06:05:59;95527.56;;;11.73;100.00
740;BME280;354;42.694;23.336;2023-04-09T06:08:25;95529.19;;;12.12;100.00
740;BME280;354;42.694;23.336;2023-04-09T06:10:50;95543.22;;;12.88;100.00
740;BME280;354;42.694;23.336;2023-04-09T06:13:15;95538.97;;;12.62;100.00
740;BME280;354;42.694;23.336;2023-04-09T06:15:41;95531.44;;;12.65;100.00
740;BME280;354;42.694;23.336;2023-04-09T06:18:06;95541.06;;;12.78;100.00
740;BME280;354;42.694;23.336;2023-04-09T06:20:32;95538.25;;;13.16;100.00
740;BME280;354;42.694;23.336;2023-04-09T06:22:57;95533.53;;;12.82;100.00
740;BME280;354;42.694;23.336;2023-04-09T06:25:23;95537.38;;;12.79;100.00
740;BME280;354;42.694;23.336;2023-04-09T06:27:48;95535.09;;;13.08;100.00
740;BME280;354;42.694;23.336;2023-04-09T06:30:13;95524.00;;;12.81;100.00
740;BME280;354;42.694;23.336;2023-04-09T06:32:39;95543.44;;;12.36;100.00
740;BME280;354;42.694;23.336;2023-04-09T06:35:05;95527.50;;;11.93;100.00
740;BME280;354;42.694;23.336;2023-04-09T06:37:33;95534.91;;;12.09;100.00
740;BME280;354;42.694;23.336;2023-04-09T06:39:58;95523.81;;;11.94;100.00
740;BME280;354;42.694;23.336;2023-04-09T06:42:23;95543.25;;;12.00;100.00
740;BME280;354;42.694;23.336;2023-04-09T06:44:49;95548.22;;;11.76;100.00
740;BME280;354;42.694;23.336;2023-04-09T06:47:14;95540.81;;;11.60;100.00
740;BME280;354;42.694;23.336;2023-04-09T06:49:40;95536.47;;;11.72;100.00
740;BME280;354;42.694;23.336;2023-04-09T06:52:05;95551.34;;;12.05;100.00
740;BME280;354;42.694;23.336;2023-04-09T06:54:31;95506.44;;;11.80;100.00
740;BME280;354;42.694;23.336;2023-04-09T06:56:57;95556.91;;;11.90;100.00
740;BME280;354;42.694;23.336;2023-04-09T06:59:22;95550.53;;;12.04;100.00
740;BME280;354;42.694;23.336;2023-04-09T07:01:47;95542.41;;;12.06;100.00
740;BME280;354;42.694;23.336;2023-04-09T07:04:13;95528.88;;;11.96;100.00
740;BME280;354;42.694;23.336;2023-04-09T07:06:38;95556.47;;;12.31;100.00
740;BME280;354;42.694;23.336;2023-04-09T07:09:04;95549.25;;;12.45;100.00
740;BME280;354;42.694;23.336;2023-04-09T07:11:30;95548.97;;;12.28;100.00
740;BME280;354;42.694;23.336;2023-04-09T07:13:57;95550.22;;;12.51;100.00
740;BME280;354;42.694;23.336;2023-04-09T07:16:23;95556.25;;;12.83;100.00
740;BME280;354;42.694;23.336;2023-04-09T07:18:48;95552.09;;;12.69;100.00
740;BME280;354;42.694;23.336;2023-04-09T07:21:13;95555.47;;;13.01;100.00
740;BME280;354;42.694;23.336;2023-04-09T07:23:39;95556.34;;;13.13;100.00
740;BME280;354;42.694;23.336;2023-04-09T07:26:05;95553.25;;;13.59;100.00
740;BME280;354;42.694;23.336;2023-04-09T07:28:30;95550.34;;;13.31;100.00
740;BME280;354;42.694;23.336;2023-04-09T07:30:56;95527.22;;;12.83;100.00
740;BME280;354;42.694;23.336;2023-04-09T07:33:22;95539.84;;;12.99;100.00
740;BME280;354;42.694;23.336;2023-04-09T07:35:47;95560.50;;;13.45;100.00
740;BME280;354;42.694;23.336;2023-04-09T07:38:13;95545.41;;;13.34;97.74
740;BME280;354;42.694;23.336;2023-04-09T07:40:38;95550.38;;;13.79;94.26
740;BME280;354;42.694;23.336;2023-04-09T07:43:04;95545.97;;;13.55;91.63
740;BME280;354;42.694;23.336;2023-04-09T07:45:30;95541.81;;;13.47;93.87
740;BME280;354;42.694;23.336;2023-04-09T07:47:55;95556.00;;;13.83;91.43
740;BME280;354;42.694;23.336;2023-04-09T07:50:21;95546.59;;;13.87;89.19
740;BME280;354;42.694;23.336;2023-04-09T07:52:46;95562.25;;;14.18;88.75
740;BME280;354;42.694;23.336;2023-04-09T07:55:11;95567.31;;;14.20;89.65
740;BME280;354;42.694;23.336;2023-04-09T07:57:37;95543.19;;;14.28;86.08
740;BME280;354;42.694;23.336;2023-04-09T08:00:03;95572.56;;;15.03;84.05
740;BME280;354;42.694;23.336;2023-04-09T08:02:29;95573.03;;;15.24;80.36
740;BME280;354;42.694;23.336;2023-04-09T08:04:55;95573.81;;;15.48;77.92
740;BME280;354;42.694;23.336;2023-04-09T08:07:20;95582.34;;;15.15;78.34
740;BME280;354;42.694;23.336;2023-04-09T08:09:45;95579.69;;;15.15;78.22
740;BME280;354;42.694;23.336;2023-04-09T08:12:11;95581.44;;;15.09;78.16
740;BME280;354;42.694;23.336;2023-04-09T08:14:36;95565.91;;;15.01;79.86
740;BME280;354;42.694;23.336;2023-04-09T08:17:02;95554.06;;;14.50;80.49
740;BME280;354;42.694;23.336;2023-04-09T08:19:27;95550.84;;;14.48;81.95
740;BME280;354;42.694;23.336;2023-04-09T08:21:52;95563.81;;;14.80;83.01
740;BME280;354;42.694;23.336;2023-04-09T08:24:18;95584.56;;;15.06;82.93
740;BME280;354;42.694;23.336;2023-04-09T08:26:44;95576.69;;;14.99;81.24
740;BME280;354;42.694;23.336;2023-04-09T08:29:10;95547.22;;;14.84;80.49
740;BME280;354;42.694;23.336;2023-04-09T08:31:36;95574.28;;;14.98;79.85
740;BME280;354;42.694;23.336;2023-04-09T08:34:02;95574.88;;;15.23;80.54
740;BME280;354;42.694;23.336;2023-04-09T08:36:28;95576.72;;;15.23;79.60
740;BME280;354;42.694;23.336;2023-04-09T08:38:53;95583.59;;;15.83;78.22
740;BME280;354;42.694;23.336;2023-04-09T08:41:24;95580.00;;;16.17;75.28
740;BME280;354;42.694;23.336;2023-04-09T08:43:51;95566.78;;;16.05;74.42
740;BME280;354;42.694;23.336;2023-04-09T08:46:20;95584.50;;;15.53;76.19
740;BME280;354;42.694;23.336;2023-04-09T08:48:48;95567.56;;;14.72;78.67
740;BME280;354;42.694;23.336;2023-04-09T08:51:18;95576.38;;;15.19;79.47
740;BME280;354;42.694;23.336;2023-04-09T08:53:45;95564.59;;;15.15;79.49
740;BME280;354;42.694;23.336;2023-04-09T08:56:13;95583.03;;;15.57;78.77
740;BME280;354;42.694;23.336;2023-04-09T08:58:42;95577.75;;;14.87;78.98
740;BME280;354;42.694;23.336;2023-04-09T09:01:23;95573.84;;;15.24;80.27
740;BME280;354;42.694;23.336;2023-04-09T09:04:03;95570.25;;;15.31;78.87
740;BME280;354;42.694;23.336;2023-04-09T09:06:31;95572.66;;;15.32;79.20
740;BME280;354;42.694;23.336;2023-04-09T09:09:11;95569.66;;;15.52;78.53
740;BME280;354;42.694;23.336;2023-04-09T09:11:39;95571.03;;;15.54;77.35
740;BME280;354;42.694;23.336;2023-04-09T09:14:07;95554.22;;;15.37;77.60
740;BME280;354;42.694;23.336;2023-04-09T09:16:37;95555.63;;;15.40;77.69
740;BME280;354;42.694;23.336;2023-04-09T09:19:38;95551.47;;;15.44;77.12
740;BME280;354;42.694;23.336;2023-04-09T09:22:05;95553.34;;;15.84;77.32
740;BME280;354;42.694;23.336;2023-04-09T09:24:32;95563.63;;;15.80;77.82
740;BME280;354;42.694;23.336;2023-04-09T09:26:59;95544.66;;;16.00;74.95
740;BME280;354;42.694;23.336;2023-04-09T09:29:25;95554.91;;;16.25;74.83
740;BME280;354;42.694;23.336;2023-04-09T09:31:53;95530.88;;;16.03;75.30
740;BME280;354;42.694;23.336;2023-04-09T09:34:20;95552.38;;;16.64;74.32
740;BME280;354;42.694;23.336;2023-04-09T09:36:46;95531.28;;;16.40;72.88
740;BME280;354;42.694;23.336;2023-04-09T09:39:13;95543.44;;;16.70;72.43
740;BME280;354;42.694;23.336;2023-04-09T09:41:39;95543.00;;;16.90;72.11
740;BME280;354;42.694;23.336;2023-04-09T09:44:06;95537.34;;;17.20;71.28
740;BME280;354;42.694;23.336;2023-04-09T09:46:37;95528.47;;;17.14;70.06
740;BME280;354;42.694;23.336;2023-04-09T09:49:04;95538.22;;;17.86;69.21
740;BME280;354;42.694;23.336;2023-04-09T09:51:30;95521.91;;;17.60;67.68
740;BME280;354;42.694;23.336;2023-04-09T09:53:57;95529.19;;;17.26;68.94
740;BME280;354;42.694;23.336;2023-04-09T09:56:37;95529.16;;;17.04;71.68
740;BME280;354;42.694;23.336;2023-04-09T09:59:21;95505.28;;;16.59;71.59
740;BME280;354;42.694;23.336;2023-04-09T10:01:53;95513.47;;;16.07;70.18
740;BME280;354;42.694;23.336;2023-04-09T10:04:22;95510.28;;;16.39;71.26
740;BME280;354;42.694;23.336;2023-04-09T10:06:50;95507.47;;;16.28;71.21
740;BME280;354;42.694;23.336;2023-04-09T10:09:16;95518.84;;;16.74;71.55
740;BME280;354;42.694;23.336;2023-04-09T10:11:43;95505.25;;;17.26;68.94
740;BME280;354;42.694;23.336;2023-04-09T10:14:12;95515.28;;;17.63;68.01
740;BME280;354;42.694;23.336;2023-04-09T10:16:38;95502.03;;;17.46;66.73
740;BME280;354;42.694;23.336;2023-04-09T10:19:03;95502.63;;;17.48;65.06
740;BME280;354;42.694;23.336;2023-04-09T10:24:07;95505.03;;;17.50;65.36
740;BME280;354;42.694;23.336;2023-04-09T10:26:34;95503.25;;;17.17;64.88
740;BME280;354;42.694;23.336;2023-04-09T10:29:11;95509.81;;;17.09;67.02
740;BME280;354;42.694;23.336;2023-04-09T10:31:52;95502.31;;;17.06;65.71
740;BME280;354;42.694;23.336;2023-04-09T10:34:20;95498.88;;;17.27;65.89
740;BME280;354;42.694;23.336;2023-04-09T10:36:51;95501.25;;;17.46;65.94
740;BME280;354;42.694;23.336;2023-04-09T10:39:17;95496.63;;;17.19;64.40
740;BME280;354;42.694;23.336;2023-04-09T10:41:45;95482.41;;;17.47;63.58
740;BME280;354;42.694;23.336;2023-04-09T10:44:20;95483.34;;;17.85;62.16
740;BME280;354;42.694;23.336;2023-04-09T10:46:46;95477.13;;;18.01;61.40
740;BME280;354;42.694;23.336;2023-04-09T10:49:14;95481.56;;;18.50;60.88
740;BME280;354;42.694;23.336;2023-04-09T10:51:40;95465.72;;;18.33;60.44
740;BME280;354;42.694;23.336;2023-04-09T10:59:37;95461.50;;;18.69;57.52
740;BME280;354;42.694;23.336;2023-04-09T11:02:07;95465.34;;;18.88;57.40
740;BME280;354;42.694;23.336;2023-04-09T11:07:28;95452.66;;;19.06;56.73
740;BME280;354;42.694;23.336;2023-04-09T11:09:54;95449.00;;;19.22;55.45
740;BME280;354;42.694;23.336;2023-04-09T11:12:20;95441.13;;;19.47;55.25
740;BME280;354;42.694;23.336;2023-04-09T11:14:45;95443.59;;;19.59;55.88
740;BME280;354;42.694;23.336;2023-04-09T11:17:11;95449.03;;;19.95;54.79
740;BME280;354;42.694;23.336;2023-04-09T11:19:37;95435.19;;;19.30;54.11
740;BME280;354;42.694;23.336;2023-04-09T11:22:04;95454.22;;;19.54;54.84
740;BME280;354;42.694;23.336;2023-04-09T11:24:44;95455.63;;;19.77;55.42
740;BME280;354;42.694;23.336;2023-04-09T11:27:11;95454.00;;;19.66;54.32
740;BME280;354;42.694;23.336;2023-04-09T11:29:37;95436.25;;;19.24;55.82
740;BME280;354;42.694;23.336;2023-04-09T11:32:03;95428.50;;;18.75;57.48
740;BME280;354;42.694;23.336;2023-04-09T11:34:32;95424.88;;;18.54;63.04
740;BME280;354;42.694;23.336;2023-04-09T11:36:58;95440.59;;;18.24;65.23
740;BME280;354;42.694;23.336;2023-04-09T11:39:27;95436.91;;;17.71;64.16
740;BME280;354;42.694;23.336;2023-04-09T11:41:53;95443.38;;;17.53;66.35
740;BME280;354;42.694;23.336;2023-04-09T11:44:19;95421.47;;;17.46;66.84
740;BME280;354;42.694;23.336;2023-04-09T11:46:45;95430.50;;;17.45;66.70
740;BME280;354;42.694;23.336;2023-04-09T11:49:12;95431.34;;;17.50;63.63
740;BME280;354;42.694;23.336;2023-04-09T11:51:38;95424.31;;;17.39;59.99
740;BME280;354;42.694;23.336;2023-04-09T11:54:06;95429.63;;;17.39;61.89
740;BME280;354;42.694;23.336;2023-04-09T11:56:36;95407.28;;;17.62;62.32
740;BME280;354;42.694;23.336;2023-04-09T11:59:02;95401.19;;;16.96;58.61
740;BME280;354;42.694;23.336;2023-04-09T12:01:31;95422.72;;;17.16;56.03
740;BME280;354;42.694;23.336;2023-04-09T12:03:57;95426.84;;;17.29;57.50
740;BME280;354;42.694;23.336;2023-04-09T12:06:23;95416.59;;;17.37;59.33
740;BME280;354;42.694;23.336;2023-04-09T12:08:52;95422.84;;;17.48;57.79
740;BME280;354;42.694;23.336;2023-04-09T12:11:18;95417.41;;;17.38;56.87
740;BME280;354;42.694;23.336;2023-04-09T12:13:45;95394.59;;;17.20;52.54
740;BME280;354;42.694;23.336;2023-04-09T12:16:11;95401.47;;;17.16;52.71
740;BME280;354;42.694;23.336;2023-04-09T12:18:37;95413.94;;;17.37;54.02
740;BME280;354;42.694;23.336;2023-04-09T12:21:03;95399.19;;;17.52;52.21
740;BME280;354;42.694;23.336;2023-04-09T12:23:28;95409.13;;;17.83;51.94
740;BME280;354;42.694;23.336;2023-04-09T12:25:55;95408.50;;;18.03;52.31
740;BME280;354;42.694;23.336;2023-04-09T12:28:23;95384.19;;;17.95;52.21
740;BME280;354;42.694;23.336;2023-04-09T12:30:49;95414.41;;;18.10;53.52
740;BME280;354;42.694;23.336;2023-04-09T12:33:15;95396.59;;;17.84;53.02
740;BME280;354;42.694;23.336;2023-04-09T12:35:40;95403.00;;;18.15;53.00
740;BME280;354;42.694;23.336;2023-04-09T12:38:06;95381.31;;;18.01;52.59
740;BME280;354;42.694;23.336;2023-04-09T12:40:31;95399.72;;;18.40;52.99
740;BME280;354;42.694;23.336;2023-04-09T12:42:57;95392.72;;;18.29;53.19
740;BME280;354;42.694;23.336;2023-04-09T12:45:22;95392.72;;;18.66;53.04
740;BME280;354;42.694;23.336;2023-04-09T12:47:48;95392.72;;;18.29;53.26
740;BME280;354;42.694;23.336;2023-04-09T12:50:14;95387.78;;;18.10;50.34
740;BME280;354;42.694;23.336;2023-04-09T12:52:40;95398.16;;;17.80;50.31
740;BME280;354;42.694;23.336;2023-04-09T12:55:07;95392.84;;;17.53;50.36
740;BME280;354;42.694;23.336;2023-04-09T12:57:33;95389.34;;;17.25;51.97
740;BME280;354;42.694;23.336;2023-04-09T12:59:59;95382.59;;;16.96;52.62
740;BME280;354;42.694;23.336;2023-04-09T13:02:24;95383.84;;;16.88;53.18
740;BME280;354;42.694;23.336;2023-04-09T13:04:50;95381.31;;;16.76;54.18
740;BME280;354;42.694;23.336;2023-04-09T13:07:17;95370.56;;;16.32;54.69
740;BME280;354;42.694;23.336;2023-04-09T13:09:46;95380.22;;;16.22;55.64
740;BME280;354;42.694;23.336;2023-04-09T13:12:14;95386.09;;;16.07;55.37
740;BME280;354;42.694;23.336;2023-04-09T13:14:41;95385.53;;;15.71;57.01
740;BME280;354;42.694;23.336;2023-04-09T13:17:07;95367.38;;;15.23;60.33
740;BME280;354;42.694;23.336;2023-04-09T13:19:32;95383.78;;;15.08;63.50
740;BME280;354;42.694;23.336;2023-04-09T13:21:57;95384.41;;;14.87;64.73
740;BME280;354;42.694;23.336;2023-04-09T13:24:23;95363.16;;;14.46;67.20
740;BME280;354;42.694;23.336;2023-04-09T13:26:48;95384.91;;;14.48;63.93
740;BME280;354;42.694;23.336;2023-04-09T13:29:14;95393.63;;;14.37;66.87
740;BME280;354;42.694;23.336;2023-04-09T13:31:39;95382.75;;;13.68;73.35
740;BME280;354;42.694;23.336;2023-04-09T13:34:05;95388.16;;;13.32;80.76
740;BME280;354;42.694;23.336;2023-04-09T13:36:30;95392.28;;;13.09;88.24
740;BME280;354;42.694;23.336;2023-04-09T13:38:56;95379.66;;;12.93;100.00
740;BME280;354;42.694;23.336;2023-04-09T13:41:29;95380.41;;;12.63;100.00
740;BME280;354;42.694;23.336;2023-04-09T13:43:55;95390.59;;;11.98;100.00
740;BME280;354;42.694;23.336;2023-04-09T13:46:20;95361.53;;;11.17;100.00
740;BME280;354;42.694;23.336;2023-04-09T13:48:45;95369.81;;;11.14;100.00
740;BME280;354;42.694;23.336;2023-04-09T13:51:11;95365.19;;;11.16;100.00
740;BME280;354;42.694;23.336;2023-04-09T13:53:36;95365.38;;;11.14;100.00